createdAt,value
2018-10-15T00:00:57.128Z,16.37
2018-10-15T00:03:25.244Z,14.93
2018-10-15T00:05:53.319Z,15.17
2018-10-15T00:08:21.475Z,15.37
2018-10-15T00:10:49.548Z,14.77
2018-10-15T00:13:17.648Z,15.30
2018-10-15T00:15:45.759Z,14.57
2018-10-15T00:18:13.852Z,16.57
2018-10-15T00:20:41.939Z,14.87
2018-10-15T00:23:10.046Z,15.47
2018-10-15T00:25:38.211Z,15.63
2018-10-15T00:28:06.423Z,16.93
2018-10-15T00:30:34.517Z,16.10
2018-10-15T00:33:02.595Z,16.70
2018-10-15T00:35:30.679Z,15.97
2018-10-15T00:37:58.791Z,16.77
2018-10-15T00:40:26.883Z,17.83
2018-10-15T00:42:54.987Z,16.20
2018-10-15T00:45:23.095Z,16.70
2018-10-15T00:47:51.180Z,16.90
2018-10-15T00:50:19.322Z,17.37
2018-10-15T00:52:47.407Z,17.03
2018-10-15T00:55:15.524Z,16.40
2018-10-15T00:57:43.685Z,15.97
2018-10-15T01:00:13.940Z,15.90
2018-10-15T01:02:42.092Z,15.80
2018-10-15T01:05:11.224Z,16.00
2018-10-15T01:07:40.267Z,15.93
2018-10-15T01:10:09.502Z,14.80
2018-10-15T01:12:37.585Z,17.20
2018-10-15T01:15:06.988Z,15.00
2018-10-15T01:17:35.110Z,15.20
2018-10-15T01:20:03.419Z,15.20
2018-10-15T01:22:31.504Z,14.63
2018-10-15T01:24:59.642Z,14.90
2018-10-15T01:27:27.718Z,15.07
2018-10-15T01:29:55.792Z,16.67
2018-10-15T01:32:23.859Z,15.63
2018-10-15T01:34:51.979Z,16.53
2018-10-15T01:37:20.064Z,14.67
2018-10-15T01:39:48.155Z,15.80
2018-10-15T01:42:16.227Z,15.77
2018-10-15T01:44:44.318Z,16.53
2018-10-15T01:47:12.428Z,15.10
2018-10-15T01:49:40.507Z,15.37
2018-10-15T01:52:08.588Z,16.00
2018-10-15T01:54:36.677Z,14.33
2018-10-15T01:57:04.935Z,15.83
2018-10-15T01:59:33.038Z,15.70
2018-10-15T02:02:07.888Z,15.60
2018-10-15T02:04:36.024Z,15.73
2018-10-15T02:07:04.571Z,15.30
2018-10-15T02:09:32.680Z,17.80
2018-10-15T02:12:00.751Z,17.00
2018-10-15T02:14:29.155Z,19.63
2018-10-15T02:16:57.220Z,18.60
2018-10-15T02:19:25.292Z,17.00
2018-10-15T02:21:53.363Z,16.70
2018-10-15T02:24:21.447Z,16.50
2018-10-15T02:26:49.536Z,16.23
2018-10-15T02:29:17.777Z,15.73
2018-10-15T02:31:45.886Z,16.53
2018-10-15T02:34:13.955Z,14.83
2018-10-15T02:36:42.122Z,16.50
2018-10-15T02:39:12.044Z,15.43
2018-10-15T02:41:40.295Z,16.13
2018-10-15T02:44:08.707Z,15.57
2018-10-15T02:46:37.206Z,15.30
2018-10-15T02:49:05.288Z,16.83
2018-10-15T02:51:33.411Z,15.40
2018-10-15T02:54:01.564Z,16.20
2018-10-15T02:56:29.657Z,15.37
2018-10-15T02:58:57.892Z,15.60
2018-10-15T03:01:25.973Z,14.83
2018-10-15T03:03:54.061Z,16.80
2018-10-15T03:06:22.162Z,16.13
2018-10-15T03:08:50.279Z,18.37
2018-10-15T03:11:18.404Z,17.07
2018-10-15T03:13:46.495Z,17.87
2018-10-15T03:16:14.567Z,17.20
2018-10-15T03:18:42.657Z,18.00
2018-10-15T03:21:10.745Z,16.23
2018-10-15T03:23:38.840Z,18.57
2018-10-15T03:26:06.918Z,18.60
2018-10-15T03:28:35.010Z,17.97
2018-10-15T03:31:03.156Z,18.60
2018-10-15T03:33:31.259Z,17.80
2018-10-15T03:35:59.338Z,19.10
2018-10-15T03:38:27.495Z,18.77
2018-10-15T03:40:55.847Z,16.30
2018-10-15T03:43:23.944Z,18.07
2018-10-15T03:45:52.020Z,18.30
2018-10-15T03:48:20.160Z,17.77
2018-10-15T03:50:48.239Z,18.00
2018-10-15T03:53:16.314Z,18.77
2018-10-15T03:55:44.404Z,17.77
2018-10-15T03:58:12.588Z,16.53
2018-10-15T04:00:40.703Z,18.77
2018-10-15T04:03:08.835Z,17.43
2018-10-15T04:05:36.923Z,19.07
2018-10-15T04:08:05.011Z,19.20
2018-10-15T04:10:33.111Z,18.47
2018-10-15T04:13:01.220Z,18.50
2018-10-15T04:15:29.299Z,17.60
2018-10-15T04:17:57.413Z,15.77
2018-10-15T04:20:25.491Z,16.20
2018-10-15T04:22:53.584Z,16.70
2018-10-15T04:25:22.811Z,16.43
2018-10-15T04:27:50.931Z,17.00
2018-10-15T04:30:19.259Z,15.53
2018-10-15T04:32:48.054Z,18.63
2018-10-15T04:35:16.301Z,20.77
2018-10-15T04:37:44.393Z,17.13
2018-10-15T04:40:13.297Z,16.67
2018-10-15T04:42:42.491Z,16.97
2018-10-15T04:45:11.803Z,18.63
2018-10-15T04:47:40.267Z,18.47
2018-10-15T04:50:08.973Z,21.33
2018-10-15T04:52:37.245Z,23.23
2018-10-15T04:55:06.386Z,19.50
2018-10-15T04:57:34.711Z,19.57
2018-10-15T05:00:02.799Z,19.20
2018-10-15T05:02:30.907Z,19.27
2018-10-15T05:04:59.198Z,20.70
2018-10-15T05:07:27.363Z,21.20
2018-10-15T05:09:55.471Z,19.43
2018-10-15T05:12:23.720Z,20.13
2018-10-15T05:14:51.680Z,19.40
2018-10-15T05:17:19.801Z,19.23
2018-10-15T05:19:47.920Z,19.10
2018-10-15T05:22:16.023Z,20.23
2018-10-15T05:24:44.175Z,18.53
2018-10-15T05:27:12.284Z,19.93
2018-10-15T05:29:40.395Z,20.23
2018-10-15T05:32:08.582Z,19.50
2018-10-15T05:34:36.686Z,19.07
2018-10-15T05:37:04.781Z,21.20
2018-10-15T05:39:32.937Z,18.33
2018-10-15T05:42:01.046Z,19.43
2018-10-15T05:44:29.365Z,18.67
2018-10-15T06:00:59.887Z,18.07
2018-10-15T06:03:27.959Z,17.93
2018-10-15T06:05:56.058Z,20.50
2018-10-15T06:08:24.183Z,20.20
2018-10-15T06:10:52.264Z,19.93
2018-10-15T06:13:20.367Z,19.90
2018-10-15T06:15:48.415Z,18.97
2018-10-15T06:18:16.570Z,17.90
2018-10-15T06:20:44.576Z,18.90
2018-10-15T06:23:12.688Z,18.13
2018-10-15T06:25:40.784Z,18.97
2018-10-15T06:28:08.893Z,17.50
2018-10-15T06:30:36.968Z,17.57
2018-10-15T06:33:05.325Z,18.47
2018-10-15T06:35:33.399Z,18.37
2018-10-15T06:38:01.490Z,17.90
2018-10-15T06:40:29.556Z,17.83
2018-10-15T06:42:57.645Z,19.93
2018-10-15T06:45:25.870Z,20.07
2018-10-15T06:47:53.787Z,19.97
2018-10-15T06:50:21.871Z,19.03
2018-10-15T06:52:49.951Z,18.17
2018-10-15T06:55:18.178Z,23.53
2018-10-15T06:57:46.232Z,18.93
2018-10-15T07:00:14.364Z,22.40
2018-10-15T07:02:42.391Z,18.43
2018-10-15T07:05:10.495Z,18.77
2018-10-15T07:07:38.703Z,18.00
2018-10-15T07:10:07.512Z,18.40
2018-10-15T07:12:35.572Z,18.10
2018-10-15T07:15:03.656Z,18.27
2018-10-15T07:17:31.780Z,20.60
2018-10-15T07:19:59.902Z,17.80
2018-10-15T07:22:27.943Z,17.00
2018-10-15T07:25:07.477Z,16.70
2018-10-15T07:27:35.542Z,17.53
2018-10-15T07:30:03.688Z,17.70
2018-10-15T07:32:31.788Z,18.87
2018-10-15T07:34:59.868Z,18.00
2018-10-15T07:37:28.211Z,16.83
2018-10-15T07:39:56.291Z,18.23
2018-10-15T07:42:24.435Z,19.23
2018-10-15T07:44:52.638Z,18.57
2018-10-15T07:47:20.727Z,15.97
2018-10-15T07:49:48.788Z,17.10
2018-10-15T07:52:16.996Z,17.50
2018-10-15T07:54:45.032Z,17.30
2018-10-15T07:57:13.104Z,16.80
2018-10-15T07:59:41.309Z,17.20
2018-10-15T08:02:09.444Z,18.20
2018-10-15T08:04:37.718Z,16.70
2018-10-15T08:07:05.831Z,18.17
2018-10-15T08:09:33.919Z,18.40
2018-10-15T08:12:02.097Z,17.60
2018-10-15T08:14:30.206Z,17.67
2018-10-15T08:16:58.299Z,17.80
2018-10-15T08:19:26.380Z,18.53
2018-10-15T08:21:54.446Z,19.00
2018-10-15T08:24:22.516Z,17.63
2018-10-15T08:26:51.577Z,18.90
2018-10-15T08:29:19.680Z,18.50
2018-10-15T08:31:47.776Z,17.80
2018-10-15T08:34:15.907Z,19.23
2018-10-15T08:36:43.988Z,18.60
2018-10-15T08:39:12.574Z,17.23
2018-10-15T08:41:40.690Z,16.20
2018-10-15T08:44:08.742Z,17.80
2018-10-15T08:46:36.802Z,18.10
2018-10-15T08:49:05.374Z,17.10
2018-10-15T08:51:33.591Z,17.63
2018-10-15T08:54:01.698Z,18.17
2018-10-15T08:56:29.777Z,16.20
2018-10-15T08:58:57.851Z,17.27
2018-10-15T09:01:25.963Z,17.60
2018-10-15T09:03:54.711Z,17.27
2018-10-15T09:06:22.942Z,15.33
2018-10-15T09:08:53.008Z,15.17
2018-10-15T09:11:21.579Z,16.20
2018-10-15T09:13:49.662Z,18.03
2018-10-15T09:16:17.744Z,16.57
2018-10-15T09:18:45.899Z,16.63
2018-10-15T09:21:13.972Z,16.57
2018-10-15T09:23:42.030Z,15.37
2018-10-15T09:26:10.111Z,15.90
2018-10-15T09:28:38.248Z,14.50
2018-10-15T09:31:06.482Z,12.53
2018-10-15T09:33:34.897Z,12.60
2018-10-15T09:36:02.831Z,13.33
2018-10-15T09:38:30.971Z,12.30
2018-10-15T09:40:59.119Z,12.27
2018-10-15T09:43:27.088Z,13.30
2018-10-15T09:45:55.217Z,16.10
2018-10-15T09:48:23.244Z,12.90
2018-10-15T09:50:51.344Z,11.63
2018-10-15T09:53:19.453Z,11.73
2018-10-15T09:55:47.460Z,12.83
2018-10-15T09:58:15.543Z,12.73
2018-10-15T10:00:48.968Z,12.60
2018-10-15T10:03:17.061Z,12.40
2018-10-15T10:05:45.176Z,11.33
2018-10-15T10:08:13.249Z,12.23
2018-10-15T10:10:41.412Z,11.43
2018-10-15T10:13:09.513Z,11.40
2018-10-15T10:15:37.744Z,11.67
2018-10-15T10:18:06.085Z,11.90
2018-10-15T10:20:34.044Z,12.87
2018-10-15T10:23:02.257Z,11.23
2018-10-15T10:25:30.283Z,12.40
2018-10-15T10:27:58.378Z,12.03
2018-10-15T10:30:26.462Z,11.77
2018-10-15T10:32:54.590Z,12.77
2018-10-15T10:36:02.211Z,13.17
2018-10-15T10:38:51.936Z,12.20
2018-10-15T10:41:19.955Z,11.90
2018-10-15T10:43:48.346Z,14.73
2018-10-15T10:46:16.433Z,11.47
2018-10-15T10:48:44.526Z,12.23
2018-10-15T10:51:12.683Z,11.90
2018-10-15T10:53:41.010Z,12.10
2018-10-15T10:56:09.140Z,12.00
2018-10-15T10:58:37.226Z,11.57
2018-10-15T11:01:05.568Z,11.97
2018-10-15T11:03:33.655Z,10.50
2018-10-15T11:06:01.727Z,10.37
2018-10-15T11:08:29.929Z,9.60
2018-10-15T11:10:57.954Z,10.13
2018-10-15T11:13:26.051Z,10.60
2018-10-15T11:15:54.118Z,10.57
2018-10-15T11:18:22.249Z,10.10
2018-10-15T11:20:50.342Z,10.20
2018-10-15T11:23:18.406Z,9.20
2018-10-15T11:25:46.456Z,9.50
2018-10-15T11:28:14.567Z,9.00
2018-10-15T11:30:42.623Z,8.43
2018-10-15T11:33:10.737Z,9.07
2018-10-15T11:35:38.818Z,9.63
2018-10-15T11:38:06.908Z,8.30
2018-10-15T11:40:34.987Z,8.60
2018-10-15T11:43:03.100Z,9.23
2018-10-15T11:45:31.175Z,8.90
2018-10-15T11:47:59.234Z,8.47
2018-10-15T11:50:27.351Z,7.70
2018-10-15T11:52:55.419Z,8.20
2018-10-15T11:55:23.512Z,8.73
2018-10-15T11:57:51.588Z,8.00
2018-10-15T12:00:19.681Z,7.90
2018-10-15T12:02:48.564Z,8.17
2018-10-15T12:05:16.683Z,8.17
2018-10-15T12:07:44.763Z,7.80
2018-10-15T12:10:13.591Z,8.03
2018-10-15T12:12:41.654Z,8.00
2018-10-15T12:15:11.234Z,7.73
2018-10-15T12:17:39.841Z,8.37
2018-10-15T12:20:09.139Z,7.67
2018-10-15T12:22:37.543Z,8.50
2018-10-15T12:25:07.158Z,8.37
2018-10-15T12:27:35.393Z,8.03
2018-10-15T12:30:03.567Z,8.10
2018-10-15T12:32:31.680Z,8.20
2018-10-15T12:34:59.771Z,7.83
2018-10-15T12:37:27.843Z,7.90
2018-10-15T12:39:55.945Z,8.20
2018-10-15T12:42:24.041Z,8.27
2018-10-15T12:44:52.155Z,8.90
2018-10-15T12:47:20.252Z,7.97
2018-10-15T12:49:48.349Z,8.23
2018-10-15T12:52:16.488Z,8.60
2018-10-15T12:54:44.584Z,8.07
2018-10-15T12:57:12.900Z,7.40
2018-10-15T12:59:40.860Z,8.70
2018-10-15T13:02:08.944Z,8.63
2018-10-15T13:04:37.023Z,8.13
2018-10-15T13:07:05.280Z,7.97
2018-10-15T13:09:33.359Z,8.20
2018-10-15T13:12:01.441Z,7.27
2018-10-15T13:14:29.519Z,7.60
2018-10-15T13:16:57.639Z,7.67
2018-10-15T13:19:25.755Z,8.00
2018-10-15T13:21:53.872Z,7.90
2018-10-15T13:24:21.948Z,9.47
2018-10-15T13:26:50.020Z,8.43
2018-10-15T13:29:18.092Z,8.87
2018-10-15T13:31:46.348Z,7.83
2018-10-15T13:34:14.498Z,7.50
2018-10-15T13:36:42.615Z,8.40
2018-10-15T13:39:10.664Z,7.50
2018-10-15T13:41:38.736Z,8.40
2018-10-15T13:44:06.835Z,8.63
2018-10-15T13:46:34.906Z,7.70
2018-10-15T13:49:02.996Z,7.37
2018-10-15T13:51:31.196Z,7.70
2018-10-15T13:53:59.291Z,7.50
2018-10-15T13:56:27.371Z,7.60
2018-10-15T13:58:55.443Z,7.20
2018-10-15T14:01:23.835Z,7.40
2018-10-15T14:03:52.314Z,7.13
2018-10-15T14:06:20.376Z,6.90
2018-10-15T14:08:48.446Z,6.87
2018-10-15T14:11:16.524Z,7.30
2018-10-15T14:13:44.596Z,7.03
2018-10-15T14:16:12.707Z,6.17
2018-10-15T14:18:40.805Z,6.27
2018-10-15T14:21:08.867Z,5.90
2018-10-15T14:23:37.068Z,7.03
2018-10-15T14:26:05.334Z,6.10
2018-10-15T14:28:33.396Z,5.63
2018-10-15T14:31:01.596Z,6.10
2018-10-15T14:33:29.647Z,5.97
2018-10-15T14:35:57.715Z,6.70
2018-10-15T14:38:25.855Z,6.83
2018-10-15T14:40:53.895Z,7.70
2018-10-15T14:43:21.993Z,6.27
2018-10-15T14:45:50.057Z,6.20
2018-10-15T14:48:18.112Z,6.10
2018-10-15T14:50:46.185Z,5.97
2018-10-15T14:53:14.336Z,7.20
2018-10-15T14:55:42.428Z,6.50
2018-10-15T14:58:10.548Z,5.73
2018-10-15T15:00:38.570Z,5.83
2018-10-15T15:03:06.656Z,6.13
2018-10-15T15:05:34.735Z,5.73
2018-10-15T15:08:02.839Z,6.50
2018-10-15T15:10:42.201Z,5.87
2018-10-15T15:13:21.716Z,5.43
2018-10-15T15:15:49.785Z,5.60
2018-10-15T15:18:17.867Z,5.93
2018-10-15T15:20:46.019Z,5.93
2018-10-15T15:23:14.127Z,6.30
2018-10-15T15:25:42.302Z,6.30
2018-10-15T15:28:10.433Z,6.03
2018-10-15T15:30:38.473Z,6.77
2018-10-15T15:33:06.574Z,5.93
2018-10-15T15:35:34.644Z,6.10
2018-10-15T15:38:02.709Z,6.03
2018-10-15T15:40:30.811Z,5.77
2018-10-15T15:42:58.875Z,5.83
2018-10-15T15:45:27.017Z,6.70
2018-10-15T15:47:55.085Z,6.37
2018-10-15T15:50:23.147Z,6.03
2018-10-15T15:52:51.268Z,6.03
2018-10-15T15:55:19.333Z,5.93
2018-10-15T15:57:47.427Z,6.27
2018-10-15T16:00:15.511Z,6.93
2018-10-15T16:02:43.601Z,6.83
2018-10-15T16:05:12.043Z,5.73
2018-10-15T16:07:40.506Z,6.43
2018-10-15T16:10:09.382Z,6.17
2018-10-15T16:12:37.473Z,6.17
2018-10-15T16:15:06.958Z,6.63
2018-10-15T16:17:35.048Z,6.37
2018-10-15T16:20:03.120Z,6.27
2018-10-15T16:22:31.203Z,7.37
2018-10-15T16:24:59.276Z,6.83
2018-10-15T16:27:27.557Z,7.20
2018-10-15T16:29:55.640Z,6.10
2018-10-15T16:32:23.704Z,6.33
2018-10-15T16:34:51.787Z,6.87
2018-10-15T16:37:19.852Z,7.40
2018-10-15T16:39:47.933Z,6.73
2018-10-15T16:42:16.040Z,6.60
2018-10-15T16:44:44.099Z,6.70
2018-10-15T16:47:12.191Z,6.07
2018-10-15T16:49:40.275Z,5.67
2018-10-15T16:52:08.516Z,6.20
2018-10-15T16:54:36.496Z,6.40
2018-10-15T16:57:04.576Z,6.70
2018-10-15T16:59:32.685Z,6.47
2018-10-15T17:02:00.755Z,7.77
2018-10-15T17:04:28.835Z,7.10
2018-10-15T17:06:56.926Z,8.80
2018-10-15T17:09:24.989Z,8.43
2018-10-15T17:11:53.095Z,7.23
2018-10-15T17:14:21.165Z,7.00
2018-10-15T17:16:49.294Z,7.37
2018-10-15T17:19:17.447Z,6.60
2018-10-15T17:21:45.520Z,6.97
2018-10-15T17:24:13.589Z,7.57
2018-10-15T17:26:41.673Z,7.43
2018-10-15T17:29:10.139Z,6.60
2018-10-15T17:31:38.418Z,7.67
2018-10-15T17:34:06.500Z,7.20
2018-10-15T17:36:34.580Z,6.60
2018-10-15T17:39:02.656Z,7.40
2018-10-15T17:41:30.757Z,7.67
2018-10-15T17:43:59.039Z,6.50
2018-10-15T17:46:27.168Z,7.23
2018-10-15T17:48:55.330Z,7.83
2018-10-15T17:51:23.416Z,7.43
2018-10-15T17:53:51.503Z,8.00
2018-10-15T17:56:19.569Z,6.97
2018-10-15T17:58:47.665Z,7.50
2018-10-15T18:01:15.728Z,7.30
2018-10-15T18:03:43.805Z,7.77
2018-10-15T18:06:11.859Z,7.03
2018-10-15T18:08:39.927Z,7.67
2018-10-15T18:11:07.986Z,7.20
2018-10-15T18:13:36.067Z,7.27
2018-10-15T18:16:04.135Z,7.00
2018-10-15T18:18:33.372Z,6.73
2018-10-15T18:21:01.738Z,7.20
2018-10-15T18:23:30.052Z,8.10
2018-10-15T18:25:58.741Z,7.50
2018-10-15T18:28:28.804Z,7.73
2018-10-15T18:31:03.407Z,7.60
2018-10-15T18:33:31.773Z,7.60
2018-10-15T18:36:02.175Z,7.73
2018-10-15T18:38:31.805Z,8.47
2018-10-15T18:41:01.278Z,8.77
2018-10-15T18:43:31.292Z,8.40
2018-10-15T18:46:00.731Z,7.80
2018-10-15T18:48:31.439Z,7.80
2018-10-15T18:51:04.395Z,7.47
2018-10-15T18:53:33.332Z,7.80
2018-10-15T18:56:01.951Z,8.90
2018-10-15T18:58:30.541Z,8.90
2018-10-15T19:01:00.567Z,9.23
2018-10-15T19:03:29.901Z,8.93
2018-10-15T19:06:02.580Z,8.50
2018-10-15T19:08:34.605Z,9.27
2018-10-15T19:11:04.005Z,8.70
2018-10-15T19:13:34.753Z,8.83
2018-10-15T19:16:30.104Z,8.07
2018-10-15T19:19:04.613Z,8.63
2018-10-15T19:21:37.444Z,9.30
2018-10-15T19:24:06.707Z,9.80
2018-10-15T19:29:29.824Z,12.10
2018-10-15T19:31:58.875Z,12.00
2018-10-15T19:37:07.911Z,10.70
2018-10-15T19:39:39.171Z,10.87
2018-10-15T19:42:12.206Z,12.30
2018-10-15T19:44:42.218Z,13.07
2018-10-15T19:47:11.968Z,12.70
2018-10-15T19:49:41.981Z,13.60
2018-10-15T19:52:11.799Z,12.83
2018-10-15T19:54:40.875Z,10.30
2018-10-15T19:57:09.203Z,9.87
2018-10-15T19:59:37.510Z,11.70
2018-10-15T20:04:53.901Z,11.07
2018-10-15T20:07:24.773Z,9.63
2018-10-15T20:12:27.647Z,11.20
2018-10-15T20:14:56.603Z,11.20
2018-10-15T20:17:29.261Z,10.47
2018-10-15T20:19:59.023Z,11.57
2018-10-15T20:22:28.831Z,11.80
2018-10-15T20:24:58.409Z,10.33
2018-10-15T20:27:28.334Z,11.83
2018-10-15T20:30:01.819Z,11.10
2018-10-15T20:32:32.616Z,12.27
2018-10-15T20:35:00.790Z,11.17
2018-10-15T20:37:28.851Z,11.90
2018-10-15T20:39:56.949Z,11.97
2018-10-15T20:42:25.089Z,11.00
2018-10-15T20:44:53.174Z,12.40
2018-10-15T20:47:21.354Z,11.23
2018-10-15T20:49:50.404Z,12.00
2018-10-15T20:52:18.551Z,11.70
2018-10-15T20:54:46.643Z,12.40
2018-10-15T20:57:14.787Z,12.03
2018-10-15T20:59:42.867Z,11.33
2018-10-15T21:02:10.951Z,12.33
2018-10-15T21:04:39.089Z,11.77
2018-10-15T21:07:07.228Z,12.20
2018-10-15T21:09:35.340Z,11.63
2018-10-15T21:12:04.068Z,11.83
2018-10-15T21:14:32.144Z,12.33
2018-10-15T21:17:00.237Z,11.33
2018-10-15T21:19:28.324Z,11.53
2018-10-15T21:21:56.413Z,10.43
2018-10-15T21:24:24.492Z,11.97
2018-10-15T21:26:52.571Z,11.20
2018-10-15T21:29:20.657Z,11.67
2018-10-15T21:31:48.759Z,11.50
2018-10-15T21:34:16.892Z,11.47
2018-10-15T21:36:44.984Z,10.80
2018-10-15T21:39:13.095Z,10.60
2018-10-15T21:41:42.396Z,11.13
2018-10-15T21:44:10.753Z,10.73
2018-10-15T21:46:42.674Z,10.13
2018-10-15T21:49:11.648Z,11.63
2018-10-15T21:51:42.797Z,11.90
2018-10-15T21:54:20.838Z,10.90
2018-10-15T21:56:51.774Z,10.77
2018-10-15T21:59:21.294Z,11.50
2018-10-15T22:01:50.143Z,10.93
2018-10-15T22:04:20.326Z,10.60
2018-10-15T22:06:50.006Z,10.70
2018-10-15T22:09:18.642Z,10.30
2018-10-15T22:11:48.522Z,10.53
2018-10-15T22:14:17.595Z,11.17
2018-10-15T22:16:48.998Z,10.63
2018-10-15T22:19:18.606Z,11.70
2018-10-15T22:21:47.629Z,11.20
2018-10-15T22:24:16.001Z,12.00
2018-10-15T22:26:46.176Z,11.43
2018-10-15T22:29:16.200Z,10.93
2018-10-15T22:31:44.362Z,11.00
2018-10-15T22:34:12.443Z,10.80
2018-10-15T22:36:40.521Z,10.50
2018-10-15T22:39:11.954Z,11.40
2018-10-15T22:41:40.444Z,11.43
2018-10-15T22:44:08.801Z,11.30
2018-10-15T22:46:37.556Z,11.90
2018-10-15T22:49:05.764Z,11.47
2018-10-15T22:51:33.838Z,12.00
2018-10-15T22:54:01.932Z,10.37
2018-10-15T22:56:30.033Z,12.03
2018-10-15T22:58:58.160Z,11.17
2018-10-15T23:01:26.287Z,11.90
2018-10-15T23:03:54.369Z,11.37
2018-10-15T23:06:22.563Z,11.83
2018-10-15T23:08:50.680Z,10.47
2018-10-15T23:11:18.757Z,11.50
2018-10-15T23:13:46.843Z,10.37
2018-10-15T23:16:14.981Z,11.43
2018-10-15T23:18:43.121Z,12.50
2018-10-15T23:21:11.147Z,11.90
2018-10-15T23:23:39.229Z,11.03
2018-10-15T23:26:07.298Z,12.20
2018-10-15T23:28:35.378Z,12.10
2018-10-15T23:31:08.930Z,12.00
2018-10-15T23:33:37.015Z,11.53
2018-10-15T23:36:05.276Z,10.83
2018-10-15T23:38:33.352Z,10.77
2018-10-15T23:41:01.515Z,11.20
2018-10-15T23:43:29.744Z,10.60
2018-10-15T23:45:57.959Z,10.63
2018-10-15T23:48:26.071Z,11.30
2018-10-15T23:50:54.152Z,12.50
2018-10-15T23:53:22.228Z,11.03
2018-10-15T23:55:50.320Z,11.57
2018-10-15T23:58:18.399Z,11.37
